sensor_id;sensor_type;location;lat;lon;timestamp;P1;durP1;ratioP1;P2;durP2;ratioP2
7501;SDS011;3792;47.740;7.606;2023-07-20T00:02:24;3.03;;;1.50;;
7501;SDS011;3792;47.740;7.606;2023-07-20T00:04:51;6.23;;;1.80;;
7501;SDS011;3792;47.740;7.606;2023-07-20T00:07:18;3.63;;;1.57;;
7501;SDS011;3792;47.740;7.606;2023-07-20T00:09:45;2.80;;;1.30;;
7501;SDS011;3792;47.740;7.606;2023-07-20T00:12:13;1.60;;;1.50;;
7501;SDS011;3792;47.740;7.606;2023-07-20T00:14:42;1.93;;;1.47;;
7501;SDS011;3792;47.740;7.606;2023-07-20T00:17:09;3.17;;;1.40;;
7501;SDS011;3792;47.740;7.606;2023-07-20T00:19:36;1.87;;;1.60;;
7501;SDS011;3792;47.740;7.606;2023-07-20T00:22:03;5.37;;;1.33;;
7501;SDS011;3792;47.740;7.606;2023-07-20T00:24:30;1.97;;;1.37;;
7501;SDS011;3792;47.740;7.606;2023-07-20T00:26:58;1.90;;;1.10;;
7501;SDS011;3792;47.740;7.606;2023-07-20T00:29:27;2.17;;;1.23;;
7501;SDS011;3792;47.740;7.606;2023-07-20T00:31:56;1.87;;;1.60;;
7501;SDS011;3792;47.740;7.606;2023-07-20T00:34:24;2.37;;;1.30;;
7501;SDS011;3792;47.740;7.606;2023-07-20T00:36:51;1.80;;;1.20;;
7501;SDS011;3792;47.740;7.606;2023-07-20T00:39:18;1.83;;;1.27;;
7501;SDS011;3792;47.740;7.606;2023-07-20T00:41:45;3.73;;;1.43;;
7501;SDS011;3792;47.740;7.606;2023-07-20T00:44:12;2.93;;;1.60;;
7501;SDS011;3792;47.740;7.606;2023-07-20T00:46:41;4.10;;;1.73;;
7501;SDS011;3792;47.740;7.606;2023-07-20T00:49:10;1.97;;;1.40;;
7501;SDS011;3792;47.740;7.606;2023-07-20T00:51:37;2.63;;;1.43;;
7501;SDS011;3792;47.740;7.606;2023-07-20T00:54:04;2.30;;;1.57;;
7501;SDS011;3792;47.740;7.606;2023-07-20T00:56:32;1.60;;;1.47;;
7501;SDS011;3792;47.740;7.606;2023-07-20T00:58:59;2.13;;;1.47;;
7501;SDS011;3792;47.740;7.606;2023-07-20T01:01:26;3.70;;;1.70;;
7501;SDS011;3792;47.740;7.606;2023-07-20T01:03:53;2.33;;;1.53;;
7501;SDS011;3792;47.740;7.606;2023-07-20T01:06:25;1.67;;;1.40;;
7501;SDS011;3792;47.740;7.606;2023-07-20T01:09:02;3.47;;;1.37;;
7501;SDS011;3792;47.740;7.606;2023-07-20T01:11:36;4.03;;;1.60;;
7501;SDS011;3792;47.740;7.606;2023-07-20T01:14:06;1.50;;;1.40;;
7501;SDS011;3792;47.740;7.606;2023-07-20T01:16:34;3.77;;;1.53;;
7501;SDS011;3792;47.740;7.606;2023-07-20T01:19:01;4.90;;;1.50;;
7501;SDS011;3792;47.740;7.606;2023-07-20T01:21:31;1.60;;;1.50;;
7501;SDS011;3792;47.740;7.606;2023-07-20T01:24:22;3.57;;;1.47;;
7501;SDS011;3792;47.740;7.606;2023-07-20T01:33:16;3.30;;;1.80;;
7501;SDS011;3792;47.740;7.606;2023-07-20T01:35:46;1.97;;;1.57;;
7501;SDS011;3792;47.740;7.606;2023-07-20T01:38:17;2.47;;;1.60;;
7501;SDS011;3792;47.740;7.606;2023-07-20T01:40:45;3.27;;;1.33;;
7501;SDS011;3792;47.740;7.606;2023-07-20T01:43:13;1.93;;;1.70;;
7501;SDS011;3792;47.740;7.606;2023-07-20T01:45:40;3.83;;;1.60;;
7501;SDS011;3792;47.740;7.606;2023-07-20T01:48:07;1.90;;;1.53;;
7501;SDS011;3792;47.740;7.606;2023-07-20T01:50:35;2.20;;;1.50;;
7501;SDS011;3792;47.740;7.606;2023-07-20T01:53:02;2.37;;;1.73;;
7501;SDS011;3792;47.740;7.606;2023-07-20T01:55:30;3.73;;;1.80;;
7501;SDS011;3792;47.740;7.606;2023-07-20T01:57:57;3.13;;;1.70;;
7501;SDS011;3792;47.740;7.606;2023-07-20T02:00:25;1.80;;;1.70;;
7501;SDS011;3792;47.740;7.606;2023-07-20T02:02:52;4.17;;;1.90;;
7501;SDS011;3792;47.740;7.606;2023-07-20T02:05:19;4.33;;;1.70;;
7501;SDS011;3792;47.740;7.606;2023-07-20T02:07:48;3.60;;;2.10;;
7501;SDS011;3792;47.740;7.606;2023-07-20T02:10:15;2.47;;;1.93;;
7501;SDS011;3792;47.740;7.606;2023-07-20T02:12:42;5.77;;;2.10;;
7501;SDS011;3792;47.740;7.606;2023-07-20T02:15:09;2.37;;;2.00;;
7501;SDS011;3792;47.740;7.606;2023-07-20T02:17:38;4.67;;;1.90;;
7501;SDS011;3792;47.740;7.606;2023-07-20T02:20:06;3.60;;;2.00;;
7501;SDS011;3792;47.740;7.606;2023-07-20T02:22:35;2.37;;;1.90;;
7501;SDS011;3792;47.740;7.606;2023-07-20T02:25:04;3.30;;;2.20;;
7501;SDS011;3792;47.740;7.606;2023-07-20T02:27:32;3.30;;;2.23;;
7501;SDS011;3792;47.740;7.606;2023-07-20T02:30:00;3.47;;;2.20;;
7501;SDS011;3792;47.740;7.606;2023-07-20T02:32:27;4.03;;;2.20;;
7501;SDS011;3792;47.740;7.606;2023-07-20T02:34:55;5.53;;;2.30;;
7501;SDS011;3792;47.740;7.606;2023-07-20T02:37:22;5.73;;;2.13;;
7501;SDS011;3792;47.740;7.606;2023-07-20T02:39:49;4.60;;;1.93;;
7501;SDS011;3792;47.740;7.606;2023-07-20T02:42:18;4.70;;;2.33;;
7501;SDS011;3792;47.740;7.606;2023-07-20T02:44:47;5.03;;;2.20;;
7501;SDS011;3792;47.740;7.606;2023-07-20T02:47:14;3.00;;;2.30;;
7501;SDS011;3792;47.740;7.606;2023-07-20T02:49:42;6.03;;;2.30;;
7501;SDS011;3792;47.740;7.606;2023-07-20T02:52:09;4.17;;;2.50;;
7501;SDS011;3792;47.740;7.606;2023-07-20T02:54:36;3.60;;;2.30;;
7501;SDS011;3792;47.740;7.606;2023-07-20T02:57:03;2.33;;;2.10;;
7501;SDS011;3792;47.740;7.606;2023-07-20T02:59:32;2.47;;;2.20;;
7501;SDS011;3792;47.740;7.606;2023-07-20T03:01:59;3.80;;;2.23;;
7501;SDS011;3792;47.740;7.606;2023-07-20T03:04:26;3.33;;;2.17;;
7501;SDS011;3792;47.740;7.606;2023-07-20T03:06:53;3.63;;;2.53;;
7501;SDS011;3792;47.740;7.606;2023-07-20T03:09:20;2.83;;;2.50;;
7501;SDS011;3792;47.740;7.606;2023-07-20T03:11:48;2.10;;;2.00;;
7501;SDS011;3792;47.740;7.606;2023-07-20T03:14:16;4.47;;;2.50;;
7501;SDS011;3792;47.740;7.606;2023-07-20T03:16:44;6.10;;;2.63;;
7501;SDS011;3792;47.740;7.606;2023-07-20T03:19:11;3.70;;;2.23;;
7501;SDS011;3792;47.740;7.606;2023-07-20T03:21:38;2.77;;;2.27;;
7501;SDS011;3792;47.740;7.606;2023-07-20T03:24:06;3.30;;;2.23;;
7501;SDS011;3792;47.740;7.606;2023-07-20T03:26:34;4.57;;;2.47;;
7501;SDS011;3792;47.740;7.606;2023-07-20T03:29:01;3.10;;;2.40;;
7501;SDS011;3792;47.740;7.606;2023-07-20T03:31:28;7.00;;;2.40;;
7501;SDS011;3792;47.740;7.606;2023-07-20T03:33:57;6.10;;;2.90;;
7501;SDS011;3792;47.740;7.606;2023-07-20T03:36:24;2.80;;;2.60;;
7501;SDS011;3792;47.740;7.606;2023-07-20T03:38:51;4.80;;;2.30;;
7501;SDS011;3792;47.740;7.606;2023-07-20T03:41:18;3.87;;;2.40;;
7501;SDS011;3792;47.740;7.606;2023-07-20T03:43:46;4.00;;;2.50;;
7501;SDS011;3792;47.740;7.606;2023-07-20T03:46:14;2.17;;;2.07;;
7501;SDS011;3792;47.740;7.606;2023-07-20T03:48:41;3.47;;;2.30;;
7501;SDS011;3792;47.740;7.606;2023-07-20T03:51:09;2.53;;;2.33;;
7501;SDS011;3792;47.740;7.606;2023-07-20T03:53:36;3.00;;;2.40;;
7501;SDS011;3792;47.740;7.606;2023-07-20T03:56:04;4.87;;;2.50;;
7501;SDS011;3792;47.740;7.606;2023-07-20T03:58:31;4.03;;;2.30;;
7501;SDS011;3792;47.740;7.606;2023-07-20T04:00:58;4.47;;;2.33;;
7501;SDS011;3792;47.740;7.606;2023-07-20T04:03:25;3.77;;;2.20;;
7501;SDS011;3792;47.740;7.606;2023-07-20T04:05:53;2.93;;;1.97;;
7501;SDS011;3792;47.740;7.606;2023-07-20T04:08:23;4.00;;;2.07;;
7501;SDS011;3792;47.740;7.606;2023-07-20T04:10:50;5.03;;;2.50;;
7501;SDS011;3792;47.740;7.606;2023-07-20T04:13:17;4.07;;;2.10;;
7501;SDS011;3792;47.740;7.606;2023-07-20T04:15:45;2.73;;;2.07;;
7501;SDS011;3792;47.740;7.606;2023-07-20T04:18:12;3.77;;;2.63;;
7501;SDS011;3792;47.740;7.606;2023-07-20T04:20:39;3.37;;;2.07;;
7501;SDS011;3792;47.740;7.606;2023-07-20T04:23:07;4.63;;;2.40;;
7501;SDS011;3792;47.740;7.606;2023-07-20T04:25:35;6.67;;;2.60;;
7501;SDS011;3792;47.740;7.606;2023-07-20T04:28:05;2.87;;;2.43;;
7501;SDS011;3792;47.740;7.606;2023-07-20T04:30:35;4.30;;;2.30;;
7501;SDS011;3792;47.740;7.606;2023-07-20T04:33:02;7.33;;;2.43;;
7501;SDS011;3792;47.740;7.606;2023-07-20T04:38:15;4.17;;;2.43;;
7501;SDS011;3792;47.740;7.606;2023-07-20T04:40:45;9.90;;;2.70;;
7501;SDS011;3792;47.740;7.606;2023-07-20T04:43:13;5.00;;;2.60;;
7501;SDS011;3792;47.740;7.606;2023-07-20T04:45:40;3.40;;;2.70;;
7501;SDS011;3792;47.740;7.606;2023-07-20T04:48:09;3.37;;;2.67;;
7501;SDS011;3792;47.740;7.606;2023-07-20T04:50:37;3.80;;;2.47;;
7501;SDS011;3792;47.740;7.606;2023-07-20T04:53:05;3.50;;;2.67;;
7501;SDS011;3792;47.740;7.606;2023-07-20T04:55:32;3.10;;;2.40;;
7501;SDS011;3792;47.740;7.606;2023-07-20T04:58:01;3.63;;;3.03;;
7501;SDS011;3792;47.740;7.606;2023-07-20T05:00:29;4.33;;;2.50;;
7501;SDS011;3792;47.740;7.606;2023-07-20T05:02:56;2.40;;;2.20;;
7501;SDS011;3792;47.740;7.606;2023-07-20T05:05:23;2.87;;;2.27;;
7501;SDS011;3792;47.740;7.606;2023-07-20T05:07:50;4.90;;;2.80;;
7501;SDS011;3792;47.740;7.606;2023-07-20T05:10:17;3.00;;;2.50;;
7501;SDS011;3792;47.740;7.606;2023-07-20T05:12:45;5.17;;;2.33;;
7501;SDS011;3792;47.740;7.606;2023-07-20T05:15:13;4.43;;;2.43;;
7501;SDS011;3792;47.740;7.606;2023-07-20T05:17:40;2.80;;;2.53;;
7501;SDS011;3792;47.740;7.606;2023-07-20T05:20:07;3.13;;;2.33;;
7501;SDS011;3792;47.740;7.606;2023-07-20T05:22:37;2.57;;;2.37;;
7501;SDS011;3792;47.740;7.606;2023-07-20T05:25:06;4.53;;;2.87;;
7501;SDS011;3792;47.740;7.606;2023-07-20T05:27:34;3.10;;;2.40;;
7501;SDS011;3792;47.740;7.606;2023-07-20T05:30:03;2.53;;;2.30;;
7501;SDS011;3792;47.740;7.606;2023-07-20T05:32:33;4.70;;;2.63;;
7501;SDS011;3792;47.740;7.606;2023-07-20T05:35:00;5.10;;;2.47;;
7501;SDS011;3792;47.740;7.606;2023-07-20T05:37:28;2.97;;;2.70;;
7501;SDS011;3792;47.740;7.606;2023-07-20T05:39:55;4.07;;;2.57;;
7501;SDS011;3792;47.740;7.606;2023-07-20T05:42:22;6.50;;;2.73;;
7501;SDS011;3792;47.740;7.606;2023-07-20T05:44:49;3.57;;;2.60;;
7501;SDS011;3792;47.740;7.606;2023-07-20T05:47:18;3.60;;;2.33;;
7501;SDS011;3792;47.740;7.606;2023-07-20T05:49:46;2.67;;;2.47;;
7501;SDS011;3792;47.740;7.606;2023-07-20T05:52:13;3.17;;;2.60;;
7501;SDS011;3792;47.740;7.606;2023-07-20T05:54:40;3.80;;;2.67;;
7501;SDS011;3792;47.740;7.606;2023-07-20T05:57:07;2.97;;;2.50;;
7501;SDS011;3792;47.740;7.606;2023-07-20T05:59:35;3.50;;;2.60;;
7501;SDS011;3792;47.740;7.606;2023-07-20T06:02:03;2.70;;;2.50;;
7501;SDS011;3792;47.740;7.606;2023-07-20T06:04:31;4.47;;;2.70;;
7501;SDS011;3792;47.740;7.606;2023-07-20T06:06:59;3.13;;;2.83;;
7501;SDS011;3792;47.740;7.606;2023-07-20T06:09:26;5.27;;;2.63;;
7501;SDS011;3792;47.740;7.606;2023-07-20T06:11:54;7.27;;;2.77;;
7501;SDS011;3792;47.740;7.606;2023-07-20T06:14:21;5.00;;;2.97;;
7501;SDS011;3792;47.740;7.606;2023-07-20T06:16:48;3.40;;;2.60;;
7501;SDS011;3792;47.740;7.606;2023-07-20T06:19:15;3.73;;;2.50;;
7501;SDS011;3792;47.740;7.606;2023-07-20T06:21:42;3.20;;;2.47;;
7501;SDS011;3792;47.740;7.606;2023-07-20T06:24:11;5.53;;;3.10;;
7501;SDS011;3792;47.740;7.606;2023-07-20T06:26:38;3.93;;;2.50;;
7501;SDS011;3792;47.740;7.606;2023-07-20T06:29:05;4.00;;;2.50;;
7501;SDS011;3792;47.740;7.606;2023-07-20T06:31:32;3.47;;;2.80;;
7501;SDS011;3792;47.740;7.606;2023-07-20T06:34:01;5.27;;;2.90;;
7501;SDS011;3792;47.740;7.606;2023-07-20T06:36:28;3.33;;;2.50;;
7501;SDS011;3792;47.740;7.606;2023-07-20T06:38:55;4.93;;;2.70;;
7501;SDS011;3792;47.740;7.606;2023-07-20T06:41:24;4.87;;;2.30;;
7501;SDS011;3792;47.740;7.606;2023-07-20T06:43:51;5.37;;;2.77;;
7501;SDS011;3792;47.740;7.606;2023-07-20T06:46:23;3.67;;;2.83;;
7501;SDS011;3792;47.740;7.606;2023-07-20T06:48:50;3.47;;;2.40;;
7501;SDS011;3792;47.740;7.606;2023-07-20T06:51:17;3.07;;;2.43;;
7501;SDS011;3792;47.740;7.606;2023-07-20T06:53:44;8.20;;;2.67;;
7501;SDS011;3792;47.740;7.606;2023-07-20T06:56:12;2.23;;;2.13;;
7501;SDS011;3792;47.740;7.606;2023-07-20T06:58:40;5.93;;;3.00;;
7501;SDS011;3792;47.740;7.606;2023-07-20T07:01:07;4.30;;;2.70;;
7501;SDS011;3792;47.740;7.606;2023-07-20T07:03:34;4.23;;;2.93;;
7501;SDS011;3792;47.740;7.606;2023-07-20T07:06:02;4.80;;;2.80;;
7501;SDS011;3792;47.740;7.606;2023-07-20T07:08:29;3.57;;;2.70;;
7501;SDS011;3792;47.740;7.606;2023-07-20T07:10:56;4.93;;;3.07;;
7501;SDS011;3792;47.740;7.606;2023-07-20T07:13:24;3.00;;;2.70;;
7501;SDS011;3792;47.740;7.606;2023-07-20T07:15:52;6.37;;;2.90;;
7501;SDS011;3792;47.740;7.606;2023-07-20T07:18:19;5.07;;;2.80;;
7501;SDS011;3792;47.740;7.606;2023-07-20T07:20:50;5.37;;;3.30;;
7501;SDS011;3792;47.740;7.606;2023-07-20T07:23:18;5.50;;;2.80;;
7501;SDS011;3792;47.740;7.606;2023-07-20T07:25:45;6.47;;;3.17;;
7501;SDS011;3792;47.740;7.606;2023-07-20T07:28:13;4.50;;;2.77;;
7501;SDS011;3792;47.740;7.606;2023-07-20T07:30:40;4.50;;;2.80;;
7501;SDS011;3792;47.740;7.606;2023-07-20T07:33:08;3.07;;;2.40;;
7501;SDS011;3792;47.740;7.606;2023-07-20T07:35:36;5.63;;;2.80;;
7501;SDS011;3792;47.740;7.606;2023-07-20T07:38:03;6.50;;;2.93;;
7501;SDS011;3792;47.740;7.606;2023-07-20T07:40:31;4.47;;;2.70;;
7501;SDS011;3792;47.740;7.606;2023-07-20T07:42:58;5.53;;;2.57;;
7501;SDS011;3792;47.740;7.606;2023-07-20T07:45:25;3.57;;;2.70;;
7501;SDS011;3792;47.740;7.606;2023-07-20T07:47:52;4.67;;;2.67;;
7501;SDS011;3792;47.740;7.606;2023-07-20T07:50:21;2.97;;;2.30;;
7501;SDS011;3792;47.740;7.606;2023-07-20T07:52:48;4.90;;;2.80;;
7501;SDS011;3792;47.740;7.606;2023-07-20T07:55:16;2.93;;;2.73;;
7501;SDS011;3792;47.740;7.606;2023-07-20T07:57:43;4.47;;;2.90;;
7501;SDS011;3792;47.740;7.606;2023-07-20T08:00:10;5.40;;;2.90;;
7501;SDS011;3792;47.740;7.606;2023-07-20T08:02:40;5.63;;;2.70;;
7501;SDS011;3792;47.740;7.606;2023-07-20T08:05:08;4.70;;;3.07;;
7501;SDS011;3792;47.740;7.606;2023-07-20T08:07:36;3.70;;;2.60;;
7501;SDS011;3792;47.740;7.606;2023-07-20T08:10:04;2.63;;;2.00;;
7501;SDS011;3792;47.740;7.606;2023-07-20T08:12:32;3.43;;;2.17;;
7501;SDS011;3792;47.740;7.606;2023-07-20T08:14:59;3.07;;;2.13;;
7501;SDS011;3792;47.740;7.606;2023-07-20T08:17:26;3.90;;;2.60;;
7501;SDS011;3792;47.740;7.606;2023-07-20T08:19:53;3.93;;;2.77;;
7501;SDS011;3792;47.740;7.606;2023-07-20T08:22:20;4.40;;;2.73;;
7501;SDS011;3792;47.740;7.606;2023-07-20T08:24:49;3.73;;;2.60;;
7501;SDS011;3792;47.740;7.606;2023-07-20T08:27:16;4.07;;;2.50;;
7501;SDS011;3792;47.740;7.606;2023-07-20T08:29:43;4.37;;;2.50;;
7501;SDS011;3792;47.740;7.606;2023-07-20T08:32:10;2.60;;;2.40;;
7501;SDS011;3792;47.740;7.606;2023-07-20T08:34:38;5.47;;;2.67;;
7501;SDS011;3792;47.740;7.606;2023-07-20T08:37:05;2.67;;;2.47;;
7501;SDS011;3792;47.740;7.606;2023-07-20T08:39:35;3.73;;;2.47;;
7501;SDS011;3792;47.740;7.606;2023-07-20T08:42:03;4.37;;;2.23;;
7501;SDS011;3792;47.740;7.606;2023-07-20T08:44:32;2.40;;;2.20;;
7501;SDS011;3792;47.740;7.606;2023-07-20T08:47:00;2.47;;;1.90;;
7501;SDS011;3792;47.740;7.606;2023-07-20T08:49:29;6.97;;;2.90;;
7501;SDS011;3792;47.740;7.606;2023-07-20T08:51:57;5.57;;;2.53;;
7501;SDS011;3792;47.740;7.606;2023-07-20T08:54:26;4.17;;;2.73;;
7501;SDS011;3792;47.740;7.606;2023-07-20T08:56:58;4.87;;;2.70;;
7501;SDS011;3792;47.740;7.606;2023-07-20T08:59:30;5.33;;;2.23;;
7501;SDS011;3792;47.740;7.606;2023-07-20T09:01:58;5.00;;;2.70;;
7501;SDS011;3792;47.740;7.606;2023-07-20T09:04:26;3.70;;;2.63;;
7501;SDS011;3792;47.740;7.606;2023-07-20T09:06:53;5.27;;;2.67;;
7501;SDS011;3792;47.740;7.606;2023-07-20T09:09:21;2.83;;;2.50;;
7501;SDS011;3792;47.740;7.606;2023-07-20T09:11:48;4.17;;;2.80;;
7501;SDS011;3792;47.740;7.606;2023-07-20T09:14:16;6.00;;;2.60;;
7501;SDS011;3792;47.740;7.606;2023-07-20T09:16:52;6.23;;;2.83;;
7501;SDS011;3792;47.740;7.606;2023-07-20T09:19:20;3.07;;;2.70;;
7501;SDS011;3792;47.740;7.606;2023-07-20T09:21:48;4.87;;;2.83;;
7501;SDS011;3792;47.740;7.606;2023-07-20T09:24:17;4.47;;;2.50;;
7501;SDS011;3792;47.740;7.606;2023-07-20T09:26:46;4.17;;;3.00;;
7501;SDS011;3792;47.740;7.606;2023-07-20T09:29:16;4.60;;;2.80;;
7501;SDS011;3792;47.740;7.606;2023-07-20T09:31:52;4.97;;;2.53;;
7501;SDS011;3792;47.740;7.606;2023-07-20T09:34:26;2.93;;;2.60;;
7501;SDS011;3792;47.740;7.606;2023-07-20T09:36:54;4.77;;;2.83;;
7501;SDS011;3792;47.740;7.606;2023-07-20T09:39:22;6.27;;;3.07;;
7501;SDS011;3792;47.740;7.606;2023-07-20T09:41:49;6.33;;;2.50;;
7501;SDS011;3792;47.740;7.606;2023-07-20T09:44:18;3.33;;;2.47;;
7501;SDS011;3792;47.740;7.606;2023-07-20T09:46:46;3.57;;;2.50;;
7501;SDS011;3792;47.740;7.606;2023-07-20T09:49:15;2.87;;;2.43;;
7501;SDS011;3792;47.740;7.606;2023-07-20T09:51:44;4.07;;;2.20;;
7501;SDS011;3792;47.740;7.606;2023-07-20T09:54:12;6.07;;;2.60;;
7501;SDS011;3792;47.740;7.606;2023-07-20T09:56:40;7.13;;;2.53;;
7501;SDS011;3792;47.740;7.606;2023-07-20T09:59:08;4.30;;;2.50;;
7501;SDS011;3792;47.740;7.606;2023-07-20T10:01:35;3.67;;;2.30;;
7501;SDS011;3792;47.740;7.606;2023-07-20T10:04:08;3.27;;;2.57;;
7501;SDS011;3792;47.740;7.606;2023-07-20T10:06:39;4.70;;;2.40;;
7501;SDS011;3792;47.740;7.606;2023-07-20T10:09:09;4.27;;;2.40;;
7501;SDS011;3792;47.740;7.606;2023-07-20T10:11:40;2.97;;;2.50;;
7501;SDS011;3792;47.740;7.606;2023-07-20T10:14:09;6.03;;;3.03;;
7501;SDS011;3792;47.740;7.606;2023-07-20T10:16:43;4.97;;;2.67;;
7501;SDS011;3792;47.740;7.606;2023-07-20T10:19:21;3.87;;;2.60;;
7501;SDS011;3792;47.740;7.606;2023-07-20T10:21:55;4.57;;;2.60;;
7501;SDS011;3792;47.740;7.606;2023-07-20T10:24:26;2.30;;;2.10;;
7501;SDS011;3792;47.740;7.606;2023-07-20T10:26:55;6.13;;;2.73;;
7501;SDS011;3792;47.740;7.606;2023-07-20T10:29:22;5.37;;;2.77;;
7501;SDS011;3792;47.740;7.606;2023-07-20T10:31:53;3.63;;;2.40;;
7501;SDS011;3792;47.740;7.606;2023-07-20T10:34:21;4.27;;;2.53;;
7501;SDS011;3792;47.740;7.606;2023-07-20T10:36:48;3.80;;;2.40;;
7501;SDS011;3792;47.740;7.606;2023-07-20T10:39:25;4.13;;;2.20;;
7501;SDS011;3792;47.740;7.606;2023-07-20T10:41:59;5.40;;;2.67;;
7501;SDS011;3792;47.740;7.606;2023-07-20T10:44:28;5.73;;;2.50;;
7501;SDS011;3792;47.740;7.606;2023-07-20T10:46:59;4.67;;;2.67;;
7501;SDS011;3792;47.740;7.606;2023-07-20T10:49:26;3.40;;;2.50;;
7501;SDS011;3792;47.740;7.606;2023-07-20T10:51:57;2.57;;;2.37;;
7501;SDS011;3792;47.740;7.606;2023-07-20T11:00:08;4.43;;;2.90;;
7501;SDS011;3792;47.740;7.606;2023-07-20T11:02:46;2.87;;;2.60;;
7501;SDS011;3792;47.740;7.606;2023-07-20T11:08:00;4.87;;;2.57;;
7501;SDS011;3792;47.740;7.606;2023-07-20T11:10:30;3.67;;;2.50;;
7501;SDS011;3792;47.740;7.606;2023-07-20T11:16:02;4.77;;;2.43;;
7501;SDS011;3792;47.740;7.606;2023-07-20T11:18:32;5.40;;;2.37;;
7501;SDS011;3792;47.740;7.606;2023-07-20T11:21:00;7.67;;;2.70;;
7501;SDS011;3792;47.740;7.606;2023-07-20T11:23:28;3.07;;;2.30;;
7501;SDS011;3792;47.740;7.606;2023-07-20T11:25:59;2.80;;;2.30;;
7501;SDS011;3792;47.740;7.606;2023-07-20T11:28:29;5.53;;;2.47;;
7501;SDS011;3792;47.740;7.606;2023-07-20T11:30:56;3.70;;;2.70;;
7501;SDS011;3792;47.740;7.606;2023-07-20T11:33:24;6.83;;;2.50;;
7501;SDS011;3792;47.740;7.606;2023-07-20T11:35:51;3.17;;;2.37;;
7501;SDS011;3792;47.740;7.606;2023-07-20T11:38:18;3.50;;;2.00;;
7501;SDS011;3792;47.740;7.606;2023-07-20T11:40:45;3.67;;;2.43;;
7501;SDS011;3792;47.740;7.606;2023-07-20T11:43:14;4.23;;;2.40;;
7501;SDS011;3792;47.740;7.606;2023-07-20T11:45:41;5.43;;;2.53;;
7501;SDS011;3792;47.740;7.606;2023-07-20T11:48:14;5.67;;;2.37;;
7501;SDS011;3792;47.740;7.606;2023-07-20T11:50:41;5.63;;;2.53;;
7501;SDS011;3792;47.740;7.606;2023-07-20T11:53:08;4.00;;;2.53;;
7501;SDS011;3792;47.740;7.606;2023-07-20T11:55:36;3.00;;;2.57;;
7501;SDS011;3792;47.740;7.606;2023-07-20T12:01:12;6.53;;;2.57;;
7501;SDS011;3792;47.740;7.606;2023-07-20T12:03:48;5.00;;;2.47;;
7501;SDS011;3792;47.740;7.606;2023-07-20T12:06:16;4.50;;;2.40;;
7501;SDS011;3792;47.740;7.606;2023-07-20T12:08:44;2.57;;;1.93;;
7501;SDS011;3792;47.740;7.606;2023-07-20T12:11:12;4.57;;;2.37;;
7501;SDS011;3792;47.740;7.606;2023-07-20T12:13:42;2.90;;;2.37;;
7501;SDS011;3792;47.740;7.606;2023-07-20T12:16:11;3.70;;;2.50;;
7501;SDS011;3792;47.740;7.606;2023-07-20T12:18:42;5.93;;;2.10;;
7501;SDS011;3792;47.740;7.606;2023-07-20T12:21:10;4.40;;;2.10;;
7501;SDS011;3792;47.740;7.606;2023-07-20T12:23:38;3.57;;;2.20;;
7501;SDS011;3792;47.740;7.606;2023-07-20T12:26:06;2.73;;;1.70;;
7501;SDS011;3792;47.740;7.606;2023-07-20T12:28:35;4.27;;;2.17;;
7501;SDS011;3792;47.740;7.606;2023-07-20T12:31:09;5.00;;;2.43;;
7501;SDS011;3792;47.740;7.606;2023-07-20T12:33:38;3.57;;;2.30;;
7501;SDS011;3792;47.740;7.606;2023-07-20T12:36:05;2.13;;;1.90;;
7501;SDS011;3792;47.740;7.606;2023-07-20T12:38:33;3.23;;;2.17;;
7501;SDS011;3792;47.740;7.606;2023-07-20T12:41:00;6.40;;;2.17;;
7501;SDS011;3792;47.740;7.606;2023-07-20T12:43:28;2.60;;;1.83;;
7501;SDS011;3792;47.740;7.606;2023-07-20T12:45:57;6.00;;;2.20;;
7501;SDS011;3792;47.740;7.606;2023-07-20T12:48:26;2.27;;;1.90;;
7501;SDS011;3792;47.740;7.606;2023-07-20T12:50:53;5.00;;;2.30;;
7501;SDS011;3792;47.740;7.606;2023-07-20T12:53:20;2.57;;;2.07;;
7501;SDS011;3792;47.740;7.606;2023-07-20T12:55:47;4.30;;;2.20;;
7501;SDS011;3792;47.740;7.606;2023-07-20T12:58:15;3.77;;;1.90;;
7501;SDS011;3792;47.740;7.606;2023-07-20T13:00:42;6.40;;;2.20;;
7501;SDS011;3792;47.740;7.606;2023-07-20T13:03:09;3.30;;;2.10;;
7501;SDS011;3792;47.740;7.606;2023-07-20T13:05:38;2.73;;;2.17;;
7501;SDS011;3792;47.740;7.606;2023-07-20T13:08:05;6.17;;;1.90;;
7501;SDS011;3792;47.740;7.606;2023-07-20T13:10:32;3.57;;;2.00;;
7501;SDS011;3792;47.740;7.606;2023-07-20T13:12:59;2.33;;;1.63;;
7501;SDS011;3792;47.740;7.606;2023-07-20T13:15:29;2.83;;;1.83;;
7501;SDS011;3792;47.740;7.606;2023-07-20T13:17:58;3.53;;;2.00;;
7501;SDS011;3792;47.740;7.606;2023-07-20T13:20:25;2.87;;;2.10;;
7501;SDS011;3792;47.740;7.606;2023-07-20T13:22:54;2.43;;;1.80;;
7501;SDS011;3792;47.740;7.606;2023-07-20T13:25:21;3.07;;;1.87;;
7501;SDS011;3792;47.740;7.606;2023-07-20T13:27:49;2.40;;;1.50;;
7501;SDS011;3792;47.740;7.606;2023-07-20T13:30:16;3.83;;;1.87;;
7501;SDS011;3792;47.740;7.606;2023-07-20T13:32:43;2.30;;;2.10;;
7501;SDS011;3792;47.740;7.606;2023-07-20T13:35:11;2.23;;;1.63;;
7501;SDS011;3792;47.740;7.606;2023-07-20T13:37:38;2.30;;;2.10;;
7501;SDS011;3792;47.740;7.606;2023-07-20T13:40:07;3.87;;;2.10;;
7501;SDS011;3792;47.740;7.606;2023-07-20T13:42:38;2.40;;;2.20;;
7501;SDS011;3792;47.740;7.606;2023-07-20T13:45:05;2.50;;;2.07;;
7501;SDS011;3792;47.740;7.606;2023-07-20T13:47:33;4.13;;;1.73;;
7501;SDS011;3792;47.740;7.606;2023-07-20T13:50:01;2.63;;;1.90;;
7501;SDS011;3792;47.740;7.606;2023-07-20T13:52:28;4.27;;;2.33;;
7501;SDS011;3792;47.740;7.606;2023-07-20T13:54:55;2.10;;;1.90;;
7501;SDS011;3792;47.740;7.606;2023-07-20T13:57:23;3.87;;;1.80;;
7501;SDS011;3792;47.740;7.606;2023-07-20T13:59:50;3.73;;;2.17;;
7501;SDS011;3792;47.740;7.606;2023-07-20T14:02:18;3.80;;;2.33;;
7501;SDS011;3792;47.740;7.606;2023-07-20T14:04:45;2.73;;;1.90;;
7501;SDS011;3792;47.740;7.606;2023-07-20T14:07:13;3.13;;;2.20;;
7501;SDS011;3792;47.740;7.606;2023-07-20T14:09:43;3.23;;;1.80;;
7501;SDS011;3792;47.740;7.606;2023-07-20T14:12:11;4.33;;;2.03;;
7501;SDS011;3792;47.740;7.606;2023-07-20T14:14:41;5.37;;;2.40;;
7501;SDS011;3792;47.740;7.606;2023-07-20T14:17:08;2.00;;;1.80;;
7501;SDS011;3792;47.740;7.606;2023-07-20T14:19:36;4.93;;;2.40;;
7501;SDS011;3792;47.740;7.606;2023-07-20T14:22:14;4.27;;;2.10;;
7501;SDS011;3792;47.740;7.606;2023-07-20T14:24:53;4.37;;;2.10;;
7501;SDS011;3792;47.740;7.606;2023-07-20T14:27:20;5.40;;;2.30;;
7501;SDS011;3792;47.740;7.606;2023-07-20T14:29:49;2.77;;;2.10;;
7501;SDS011;3792;47.740;7.606;2023-07-20T14:32:16;6.57;;;2.30;;
7501;SDS011;3792;47.740;7.606;2023-07-20T14:34:43;2.60;;;1.80;;
7501;SDS011;3792;47.740;7.606;2023-07-20T14:37:10;5.57;;;2.23;;
7501;SDS011;3792;47.740;7.606;2023-07-20T14:39:38;5.27;;;2.10;;
7501;SDS011;3792;47.740;7.606;2023-07-20T14:42:05;5.57;;;2.07;;
7501;SDS011;3792;47.740;7.606;2023-07-20T14:44:33;2.33;;;1.93;;
7501;SDS011;3792;47.740;7.606;2023-07-20T14:47:02;3.43;;;1.90;;
7501;SDS011;3792;47.740;7.606;2023-07-20T14:49:29;3.07;;;1.73;;
7501;SDS011;3792;47.740;7.606;2023-07-20T14:51:56;2.30;;;1.93;;
7501;SDS011;3792;47.740;7.606;2023-07-20T14:54:23;2.87;;;2.00;;
7501;SDS011;3792;47.740;7.606;2023-07-20T14:56:51;4.67;;;2.33;;
7501;SDS011;3792;47.740;7.606;2023-07-20T14:59:18;5.57;;;2.03;;
7501;SDS011;3792;47.740;7.606;2023-07-20T15:01:46;4.23;;;2.13;;
7501;SDS011;3792;47.740;7.606;2023-07-20T15:04:14;3.60;;;2.23;;
7501;SDS011;3792;47.740;7.606;2023-07-20T15:06:41;3.80;;;2.23;;
7501;SDS011;3792;47.740;7.606;2023-07-20T15:09:09;4.27;;;2.07;;
7501;SDS011;3792;47.740;7.606;2023-07-20T15:11:36;6.77;;;2.33;;
7501;SDS011;3792;47.740;7.606;2023-07-20T15:14:03;3.13;;;2.27;;
7501;SDS011;3792;47.740;7.606;2023-07-20T15:16:30;4.80;;;2.67;;
7501;SDS011;3792;47.740;7.606;2023-07-20T15:18:57;2.80;;;2.17;;
7501;SDS011;3792;47.740;7.606;2023-07-20T15:21:26;4.10;;;1.90;;
7501;SDS011;3792;47.740;7.606;2023-07-20T15:23:55;2.80;;;1.87;;
7501;SDS011;3792;47.740;7.606;2023-07-20T15:26:23;2.83;;;1.87;;
7501;SDS011;3792;47.740;7.606;2023-07-20T15:28:50;4.90;;;1.90;;
7501;SDS011;3792;47.740;7.606;2023-07-20T15:31:17;6.13;;;2.23;;
7501;SDS011;3792;47.740;7.606;2023-07-20T15:33:44;2.83;;;1.67;;
7501;SDS011;3792;47.740;7.606;2023-07-20T15:36:11;3.90;;;1.80;;
7501;SDS011;3792;47.740;7.606;2023-07-20T15:38:39;3.90;;;1.97;;
7501;SDS011;3792;47.740;7.606;2023-07-20T15:41:06;3.60;;;2.20;;
7501;SDS011;3792;47.740;7.606;2023-07-20T15:43:33;3.40;;;1.90;;
7501;SDS011;3792;47.740;7.606;2023-07-20T15:46:11;3.07;;;1.90;;